Time;durP1;ratioP1;P1;durP2;ratioP2;P2;SDS_P1;SDS_P2;PMS_P1;PMS_P2;Temp;Humidity;BMP_temperature;BMP_pressure;BME280_temperature;BME280_humidity;BME280_pressure;Samples;Min_cycle;Max_cycle;Signal;HPM_P1;HPM_P2
2023/02/11 00:01:16;;;;;;;18.02;9.05;;;26.80;86.20;;;;;;5063755;28;20051;-54
2023/02/11 00:03:43;;;;;;;13.77;8.10;;;26.80;86.20;;;;;;5063673;28;20270;-54
2023/02/11 00:06:10;;;;;;;11.05;7.00;;;26.80;86.10;;;;;;5063728;28;20229;-49
2023/02/11 00:08:38;;;;;;;10.27;6.28;;;26.80;86.10;;;;;;5063749;28;20031;-59
2023/02/11 00:11:05;;;;;;;8.95;5.80;;;26.80;86.00;;;;;;5063568;28;20029;-57
2023/02/11 00:13:31;;;;;;;9.27;5.72;;;26.80;85.90;;;;;;5063771;28;20104;-51
2023/02/11 00:15:58;;;;;;;9.60;5.53;;;26.70;85.90;;;;;;5064078;28;20025;-47
2023/02/11 00:18:25;;;;;;;9.10;5.15;;;26.70;85.90;;;;;;5063687;28;20033;-50
2023/02/11 00:20:51;;;;;;;9.07;4.78;;;26.70;85.80;;;;;;5064168;28;20313;-52
2023/02/11 00:23:18;;;;;;;11.10;5.50;;;26.80;85.70;;;;;;5064156;28;20021;-48
2023/02/11 00:25:47;;;;;;;7.88;4.93;;;26.70;85.50;;;;;;5063762;28;20035;-53
2023/02/11 00:28:15;;;;;;;15.68;5.18;;;26.70;85.30;;;;;;5065151;28;20028;-50
2023/02/11 00:30:42;;;;;;;19.77;5.55;;;26.60;84.80;;;;;;5073912;28;20028;-50
2023/02/11 00:33:08;;;;;;;13.40;5.88;;;26.60;85.20;;;;;;5083205;28;20020;-49
2023/02/11 00:35:37;;;;;;;12.27;5.20;;;26.60;85.30;;;;;;5079026;28;20024;-48
2023/02/11 00:38:04;;;;;;;11.98;5.68;;;26.60;85.30;;;;;;5078966;28;20082;-46
2023/02/11 00:40:30;;;;;;;10.88;5.60;;;26.60;85.20;;;;;;5080657;28;20024;-48
2023/02/11 00:42:57;;;;;;;11.52;5.85;;;26.60;85.20;;;;;;5082230;28;20111;-50
2023/02/11 00:45:23;;;;;;;11.95;5.50;;;26.60;85.40;;;;;;5086049;28;20040;-51
2023/02/11 00:47:50;;;;;;;12.07;5.70;;;26.60;85.30;;;;;;5082066;28;20329;-48
2023/02/11 00:50:17;;;;;;;13.80;5.55;;;26.60;85.10;;;;;;5081598;28;20048;-51
2023/02/11 00:52:43;;;;;;;13.30;5.57;;;26.60;84.80;;;;;;5084383;28;20024;-48
2023/02/11 00:55:10;;;;;;;9.38;5.18;;;26.60;84.70;;;;;;5087411;28;20028;-53
2023/02/11 00:57:36;;;;;;;10.77;4.90;;;26.60;84.90;;;;;;5086972;28;20039;-52
2023/02/11 01:00:05;;;;;;;9.85;5.05;;;26.60;84.80;;;;;;5087472;28;20033;-55
2023/02/11 01:02:33;;;;;;;8.52;5.05;;;26.60;84.80;;;;;;5086931;28;20036;-52
2023/02/11 01:04:59;;;;;;;7.57;5.32;;;26.60;84.70;;;;;;5087368;28;20060;-53
2023/02/11 01:07:27;;;;;;;9.18;5.28;;;26.60;84.70;;;;;;5087019;28;20312;-51
2023/02/11 01:09:54;;;;;;;6.38;5.30;;;26.60;84.80;;;;;;5087032;28;20054;-50
2023/02/11 01:12:21;;;;;;;11.00;5.80;;;26.60;84.80;;;;;;5086476;28;20400;-46
2023/02/11 01:14:49;;;;;;;7.15;5.63;;;26.50;84.80;;;;;;5087482;28;20200;-52
2023/02/11 01:17:17;;;;;;;8.88;5.60;;;26.60;84.70;;;;;;5086676;28;20016;-51
2023/02/11 01:19:44;;;;;;;10.18;6.15;;;26.60;84.80;;;;;;5087167;28;20029;-55
2023/02/11 01:22:10;;;;;;;10.05;6.00;;;26.60;85.00;;;;;;5086588;28;20244;-50
2023/02/11 01:24:37;;;;;;;9.02;6.03;;;26.50;84.90;;;;;;5086853;28;20036;-53
2023/02/11 01:27:03;;;;;;;10.35;5.90;;;26.60;85.00;;;;;;5086595;28;20036;-51
2023/02/11 01:29:30;;;;;;;11.43;5.28;;;26.50;84.80;;;;;;5087178;28;20032;-53
2023/02/11 01:31:57;;;;;;;9.93;5.95;;;26.50;85.00;;;;;;5086497;28;20078;-55
2023/02/11 01:34:23;;;;;;;9.05;5.38;;;26.60;85.20;;;;;;5086683;28;20285;-54
2023/02/11 01:36:50;;;;;;;9.73;5.35;;;26.50;85.30;;;;;;5086743;28;20035;-46
2023/02/11 01:39:17;;;;;;;8.73;5.50;;;26.50;85.30;;;;;;5086829;28;20036;-47
2023/02/11 01:41:43;;;;;;;8.52;5.47;;;26.50;85.30;;;;;;5086379;28;20040;-48
2023/02/11 01:44:36;;;;;;;11.15;5.70;;;26.50;85.40;;;;;;5086423;28;20045;-47
2023/02/11 01:47:05;;;;;;;7.13;5.22;;;26.50;85.40;;;;;;5086387;28;20024;-45
2023/02/11 01:49:35;;;;;;;8.50;5.65;;;26.50;85.50;;;;;;5086210;28;20074;-49
2023/02/11 01:52:13;;;;;;;10.40;6.20;;;26.50;85.60;;;;;;5086125;28;20025;-51
2023/02/11 01:57:39;;;;;;;21.30;6.70;;;26.40;85.70;;;;;;5085934;28;20063;-52
2023/02/11 02:00:11;;;;;;;24.35;7.10;;;26.40;85.80;;;;;;5086377;28;20028;-50
2023/02/11 02:02:59;;;;;;;12.18;6.25;;;26.40;85.90;;;;;;5085747;28;20020;-52
2023/02/11 02:05:26;;;;;;;11.93;6.03;;;26.40;86.00;;;;;;5085937;28;20044;-50
2023/02/11 02:08:15;;;;;;;14.48;6.00;;;26.40;86.00;;;;;;5085781;28;20047;-47
2023/02/11 02:10:46;;;;;;;10.90;6.15;;;26.40;86.00;;;;;;5086163;28;20277;-54
2023/02/11 02:13:13;;;;;;;9.13;6.15;;;26.30;85.90;;;;;;5085472;28;20024;-51
2023/02/11 02:15:51;;;;;;;11.88;6.35;;;26.30;86.00;;;;;;5085903;28;20087;-54
2023/02/11 02:18:29;;;;;;;9.35;5.70;;;26.30;86.00;;;;;;5085809;28;20062;-51
2023/02/11 02:21:14;;;;;;;9.45;6.20;;;26.30;85.80;;;;;;5085672;28;20074;-55
2023/02/11 02:24:12;;;;;;;11.10;5.63;;;26.30;85.60;;;;;;5085628;28;20032;-52
2023/02/11 02:26:57;;;;;;;9.75;5.40;;;26.30;85.40;;;;;;5083939;28;20071;-61
2023/02/11 02:29:42;;;;;;;11.30;5.63;;;26.30;85.60;;;;;;5084097;28;20029;-54
2023/02/11 02:32:15;;;;;;;12.68;5.75;;;26.30;85.70;;;;;;5082230;28;20142;-57
2023/02/11 02:34:52;;;;;;;11.43;6.18;;;26.40;85.70;;;;;;5071615;28;20029;-54
2023/02/11 02:37:36;;;;;;;13.50;5.35;;;26.30;85.60;;;;;;5070070;28;20029;-55
2023/02/11 02:40:08;;;;;;;11.48;5.30;;;26.40;85.50;;;;;;5068704;28;20062;-57
2023/02/11 02:42:36;;;;;;;10.38;6.13;;;26.40;85.50;;;;;;5078284;28;20032;-53
2023/02/11 02:45:02;;;;;;;10.15;5.72;;;26.40;85.30;;;;;;5074536;28;20041;-55
2023/02/11 02:47:29;;;;;;;8.77;6.00;;;26.40;85.10;;;;;;5079710;28;20032;-51
2023/02/11 02:49:55;;;;;;;8.73;5.43;;;26.40;84.90;;;;;;5085480;28;20036;-56
2023/02/11 02:52:28;;;;;;;8.30;5.60;;;26.40;84.90;;;;;;5079113;28;20098;-56
2023/02/11 02:55:07;;;;;;;7.82;5.47;;;26.40;84.80;;;;;;5065306;28;20029;-52
2023/02/11 02:57:59;;;;;;;10.88;5.38;;;26.40;84.80;;;;;;5079620;28;20311;-56
2023/02/11 03:00:40;;;;;;;191.57;13.10;;;26.40;84.80;;;;;;5081950;28;20247;-53
2023/02/11 03:03:22;;;;;;;9.85;5.65;;;26.40;85.00;;;;;;5081269;28;20090;-55
2023/02/11 03:06:07;;;;;;;10.93;5.50;;;26.30;84.80;;;;;;5078581;28;20047;-49
2023/02/11 03:09:02;;;;;;;12.55;5.65;;;26.30;84.90;;;;;;5064605;28;20067;-53
2023/02/11 03:11:28;;;;;;;9.65;5.55;;;26.30;85.00;;;;;;5064724;28;20032;-51
2023/02/11 03:13:59;;;;;;;7.65;5.40;;;26.30;84.90;;;;;;5064630;28;20354;-56
2023/02/11 03:16:27;;;;;;;7.13;5.30;;;26.30;84.90;;;;;;5064413;28;20028;-49
2023/02/11 03:19:05;;;;;;;7.35;5.70;;;26.20;84.70;;;;;;5064721;28;20021;-49
2023/02/11 03:21:34;;;;;;;10.70;6.07;;;26.30;84.80;;;;;;5064277;28;20024;-50
2023/02/11 03:24:06;;;;;;;9.68;5.82;;;26.30;84.80;;;;;;5064669;28;20312;-50
2023/02/11 03:26:43;;;;;;;9.40;5.30;;;26.30;84.70;;;;;;5064316;28;20037;-47
2023/02/11 03:29:18;;;;;;;7.80;5.68;;;26.30;84.70;;;;;;5064268;28;20257;-48
2023/02/11 03:31:51;;;;;;;7.60;5.47;;;26.30;84.70;;;;;;5063993;28;20090;-51
2023/02/11 03:34:30;;;;;;;8.70;5.13;;;26.30;84.60;;;;;;5074849;28;20049;-49
2023/02/11 03:37:13;;;;;;;9.10;5.57;;;26.30;84.60;;;;;;5064181;28;20043;-52
2023/02/11 03:40:03;;;;;;;6.32;5.57;;;26.30;84.50;;;;;;5064358;28;20025;-50
2023/02/11 03:42:38;;;;;;;7.13;5.60;;;26.30;84.70;;;;;;5075363;28;20194;-49
2023/02/11 03:45:09;;;;;;;6.93;4.93;;;26.20;84.30;;;;;;5063892;28;20069;-48
2023/02/11 03:47:40;;;;;;;8.27;5.88;;;26.20;84.30;;;;;;5064065;28;20033;-56
2023/02/11 03:50:11;;;;;;;7.15;5.75;;;26.20;84.30;;;;;;5064172;28;20037;-51
2023/02/11 03:52:38;;;;;;;8.32;5.60;;;26.20;84.30;;;;;;5063841;28;20051;-52
2023/02/11 03:55:12;;;;;;;7.82;5.43;;;26.20;84.20;;;;;;5064326;28;20021;-47
2023/02/11 03:57:39;;;;;;;9.98;5.55;;;26.20;84.30;;;;;;5063932;28;20025;-47
2023/02/11 04:00:06;;;;;;;7.15;5.18;;;26.20;84.40;;;;;;5064256;28;20021;-52
2023/02/11 04:02:35;;;;;;;6.28;5.10;;;26.20;84.30;;;;;;5062640;28;20060;-56
2023/02/11 04:05:05;;;;;;;10.35;5.32;;;26.20;84.40;;;;;;5064181;28;20037;-48
2023/02/11 04:07:32;;;;;;;8.93;5.13;;;26.20;84.20;;;;;;5063712;28;20028;-46
2023/02/11 04:09:59;;;;;;;8.73;5.47;;;26.20;84.20;;;;;;5064048;28;20229;-52
2023/02/11 04:12:26;;;;;;;7.40;5.32;;;26.20;84.10;;;;;;5063926;28;20021;-49
2023/02/11 04:14:52;;;;;;;10.38;6.10;;;26.20;84.10;;;;;;5064147;28;20186;-48
2023/02/11 04:17:19;;;;;;;7.43;5.60;;;26.20;84.10;;;;;;5064127;28;20033;-47
2023/02/11 04:19:46;;;;;;;6.80;5.15;;;26.20;84.20;;;;;;5067733;28;20028;-49
2023/02/11 04:22:12;;;;;;;5.93;5.00;;;26.20;84.10;;;;;;5067794;28;20097;-47
2023/02/11 04:24:39;;;;;;;8.13;5.40;;;26.20;84.10;;;;;;5068032;28;20225;-49
2023/02/11 04:27:05;;;;;;;10.10;5.32;;;26.20;84.20;;;;;;5068050;28;20036;-51
2023/02/11 04:29:32;;;;;;;7.53;5.38;;;26.20;84.20;;;;;;5067941;28;20025;-47
2023/02/11 04:31:59;;;;;;;9.38;5.25;;;26.20;84.20;;;;;;5067536;28;20098;-47
2023/02/11 04:34:25;;;;;;;7.70;5.45;;;26.20;84.10;;;;;;5067614;28;20067;-52
2023/02/11 04:36:52;;;;;;;7.40;5.22;;;26.20;84.10;;;;;;5067402;28;20020;-54
2023/02/11 04:39:19;;;;;;;7.85;5.90;;;26.20;84.00;;;;;;5067627;28;20028;-48
2023/02/11 04:41:45;;;;;;;7.68;5.25;;;26.20;84.00;;;;;;5067175;28;20013;-55
2023/02/11 04:44:12;;;;;;;6.93;5.38;;;26.20;84.40;;;;;;5067726;28;20029;-55
2023/02/11 04:46:38;;;;;;;7.13;5.40;;;26.20;83.90;;;;;;5067166;28;20047;-52
2023/02/11 04:49:05;;;;;;;7.32;5.32;;;26.20;83.80;;;;;;5067378;28;20029;-50
2023/02/11 04:51:32;;;;;;;7.95;5.38;;;26.20;83.80;;;;;;5067135;28;20017;-47
2023/02/11 04:53:58;;;;;;;6.60;5.45;;;26.20;83.80;;;;;;5067276;28;20094;-54
2023/02/11 04:56:25;;;;;;;7.07;5.13;;;26.20;83.70;;;;;;5066923;28;20209;-52
2023/02/11 04:58:52;;;;;;;9.05;5.60;;;26.20;83.60;;;;;;5067367;28;20029;-46
2023/02/11 05:01:18;;;;;;;7.65;5.53;;;26.20;83.60;;;;;;5066925;28;20062;-49
2023/02/11 05:03:45;;;;;;;8.35;5.38;;;26.20;83.60;;;;;;5066720;28;20040;-48
2023/02/11 05:06:11;;;;;;;8.73;5.68;;;26.20;83.70;;;;;;5066930;28;20034;-46
2023/02/11 05:08:38;;;;;;;7.25;5.07;;;26.20;83.70;;;;;;5066961;28;20096;-51
2023/02/11 05:11:06;;;;;;;7.60;5.07;;;26.20;83.70;;;;;;5066674;28;20100;-48
2023/02/11 05:13:33;;;;;;;7.22;5.53;;;26.20;83.60;;;;;;5066957;28;20017;-47
2023/02/11 05:16:00;;;;;;;8.27;5.50;;;26.20;83.60;;;;;;5067159;28;20159;-50
2023/02/11 05:18:27;;;;;;;8.25;5.45;;;26.20;83.60;;;;;;5066571;28;20033;-51
2023/02/11 05:20:54;;;;;;;6.43;5.38;;;26.20;83.60;;;;;;5066841;28;20016;-47
2023/02/11 05:23:20;;;;;;;7.72;5.60;;;26.20;83.50;;;;;;5066757;28;20051;-52
2023/02/11 05:25:47;;;;;;;6.68;5.22;;;26.20;83.60;;;;;;5066349;28;20027;-46
2023/02/11 05:28:13;;;;;;;6.53;5.30;;;26.20;83.60;;;;;;5076566;28;20317;-49
2023/02/11 05:30:40;;;;;;;6.70;5.15;;;26.20;83.60;;;;;;5076327;28;20029;-48
2023/02/11 05:33:06;;;;;;;7.18;5.15;;;26.20;83.60;;;;;;5086405;28;20217;-52
2023/02/11 05:35:33;;;;;;;6.40;5.70;;;26.20;83.60;;;;;;5086470;28;20232;-48
2023/02/11 05:37:59;;;;;;;7.20;5.28;;;26.20;83.60;;;;;;5086414;28;20021;-56
2023/02/11 05:40:26;;;;;;;7.63;5.03;;;26.20;83.60;;;;;;5086338;28;20039;-50
2023/02/11 05:42:53;;;;;;;7.95;5.57;;;26.20;83.60;;;;;;5086314;28;20037;-52
2023/02/11 05:45:19;;;;;;;8.00;5.40;;;26.20;83.60;;;;;;5086550;28;20093;-47
2023/02/11 05:47:46;;;;;;;9.20;5.50;;;26.20;83.60;;;;;;5086266;28;20035;-54
2023/02/11 05:50:12;;;;;;;8.02;5.03;;;26.20;83.60;;;;;;5086626;28;20209;-48
2023/02/11 05:52:41;;;;;;;6.40;5.55;;;26.20;83.50;;;;;;5086054;28;20142;-47
2023/02/11 05:55:07;;;;;;;9.38;5.93;;;26.20;83.60;;;;;;5086632;28;20040;-49
2023/02/11 05:57:34;;;;;;;8.00;5.43;;;26.20;83.60;;;;;;5086021;28;20021;-48
2023/02/11 06:00:01;;;;;;;7.32;5.55;;;26.20;83.70;;;;;;5086404;28;20024;-49
2023/02/11 06:02:27;;;;;;;7.35;5.65;;;26.20;83.70;;;;;;5086033;28;20087;-46
2023/02/11 06:04:54;;;;;;;6.07;5.47;;;26.20;83.70;;;;;;5085805;28;20034;-49
2023/02/11 06:07:21;;;;;;;9.25;5.55;;;26.20;83.80;;;;;;5086029;28;20091;-51
2023/02/11 06:09:47;;;;;;;7.25;5.68;;;26.20;83.70;;;;;;5086121;28;20020;-48
2023/02/11 06:12:14;;;;;;;8.90;5.70;;;26.20;83.70;;;;;;5085510;28;20211;-49
2023/02/11 06:14:41;;;;;;;6.60;5.40;;;26.20;83.70;;;;;;5086047;28;20027;-48
2023/02/11 06:17:07;;;;;;;8.55;5.53;;;26.20;83.70;;;;;;5085900;28;20247;-47
2023/02/11 06:19:34;;;;;;;7.70;5.50;;;26.20;83.70;;;;;;5082879;28;20036;-48
2023/02/11 06:22:01;;;;;;;6.05;5.45;;;26.20;83.70;;;;;;5072015;28;20056;-46
2023/02/11 06:24:27;;;;;;;7.63;5.28;;;26.20;83.60;;;;;;5076844;28;20031;-50
2023/02/11 06:26:54;;;;;;;6.70;5.30;;;26.20;83.60;;;;;;5070472;28;20032;-46
2023/02/11 06:29:20;;;;;;;6.85;5.47;;;26.20;83.60;;;;;;5084381;28;20103;-51
2023/02/11 06:31:47;;;;;;;7.45;5.07;;;26.20;83.60;;;;;;5073402;28;20082;-51
2023/02/11 06:34:14;;;;;;;10.40;5.60;;;26.20;83.60;;;;;;5079674;28;20017;-51
2023/02/11 06:36:42;;;;;;;8.32;5.63;;;26.20;83.60;;;;;;5065390;28;20025;-55
2023/02/11 06:39:09;;;;;;;7.00;5.43;;;26.20;83.50;;;;;;5072784;28;20332;-49
2023/02/11 06:41:36;;;;;;;10.32;6.00;;;26.20;83.50;;;;;;5073390;28;20037;-48
2023/02/11 06:44:03;;;;;;;8.65;5.38;;;26.20;83.50;;;;;;5074271;28;20024;-46
2023/02/11 06:46:29;;;;;;;7.22;5.25;;;26.20;83.50;;;;;;5069624;28;20272;-47
2023/02/11 06:48:56;;;;;;;6.30;5.25;;;26.20;83.50;;;;;;5081992;28;20074;-46
2023/02/11 06:51:23;;;;;;;6.65;5.30;;;26.20;83.60;;;;;;5070557;28;20087;-50
2023/02/11 06:53:49;;;;;;;6.65;5.32;;;26.20;83.70;;;;;;5074363;28;20029;-47
2023/02/11 06:56:21;;;;;;;9.50;5.55;;;26.10;83.60;;;;;;5073778;28;20052;-49
2023/02/11 06:58:51;;;;;;;7.35;5.47;;;26.20;83.60;;;;;;5068728;28;20025;-49
2023/02/11 07:01:17;;;;;;;6.57;5.57;;;26.10;83.50;;;;;;5071615;28;20032;-49
2023/02/11 07:03:45;;;;;;;7.50;5.18;;;26.10;83.40;;;;;;5068806;28;20056;-47
2023/02/11 07:06:15;;;;;;;6.43;5.47;;;26.10;83.40;;;;;;5067429;28;20254;-52
2023/02/11 07:08:42;;;;;;;9.52;5.05;;;26.20;83.50;;;;;;5066667;28;20328;-53
2023/02/11 07:11:18;;;;;;;9.65;5.53;;;26.10;83.40;;;;;;5071579;28;20043;-49
2023/02/11 07:13:45;;;;;;;7.63;5.13;;;26.10;83.40;;;;;;5069478;28;20033;-49
2023/02/11 07:16:15;;;;;;;7.57;5.68;;;26.10;83.50;;;;;;5075762;28;20096;-51
2023/02/11 07:18:42;;;;;;;7.40;5.57;;;26.10;83.50;;;;;;5076126;28;20054;-50
2023/02/11 07:21:10;;;;;;;9.10;5.70;;;26.10;83.40;;;;;;5073914;28;20032;-47
2023/02/11 07:23:39;;;;;;;7.45;5.43;;;26.10;83.40;;;;;;5078843;28;20024;-47
2023/02/11 07:26:11;;;;;;;5.90;5.20;;;26.10;83.40;;;;;;5069550;28;20032;-49
2023/02/11 07:28:39;;;;;;;9.18;5.38;;;26.10;83.40;;;;;;5064530;28;20021;-48
2023/02/11 07:31:07;;;;;;;6.88;5.28;;;26.10;83.50;;;;;;5064171;28;20039;-51
2023/02/11 07:33:35;;;;;;;6.82;5.57;;;26.10;83.50;;;;;;5063959;28;20055;-49
2023/02/11 07:36:03;;;;;;;8.30;5.68;;;26.10;83.50;;;;;;5064237;28;20021;-52
2023/02/11 07:38:30;;;;;;;7.07;5.70;;;26.10;83.50;;;;;;5063413;28;20052;-64
2023/02/11 07:41:03;;;;;;;9.23;6.13;;;26.10;83.60;;;;;;5064160;28;20371;-56
2023/02/11 07:43:31;;;;;;;11.88;5.63;;;26.10;83.70;;;;;;5064277;28;20100;-48
2023/02/11 07:45:58;;;;;;;9.80;5.35;;;26.10;83.70;;;;;;5063903;28;20348;-48
2023/02/11 07:48:25;;;;;;;6.57;5.60;;;26.10;83.60;;;;;;5064014;28;20321;-45
2023/02/11 07:50:52;;;;;;;7.20;5.50;;;26.10;83.60;;;;;;5071330;28;20102;-51
2023/02/11 07:53:18;;;;;;;6.85;5.20;;;26.10;83.60;;;;;;5076462;28;20197;-49
2023/02/11 07:55:45;;;;;;;6.38;4.93;;;26.10;83.50;;;;;;5072085;28;20056;-55
2023/02/11 07:58:11;;;;;;;6.45;5.20;;;26.10;83.50;;;;;;5069363;28;20076;-49
2023/02/11 08:00:38;;;;;;;5.72;5.07;;;26.10;83.40;;;;;;5063815;28;20297;-51
2023/02/11 08:03:07;;;;;;;6.72;5.03;;;26.10;83.90;;;;;;5063722;28;20335;-49
2023/02/11 08:05:36;;;;;;;8.25;5.60;;;26.10;83.40;;;;;;5064247;28;20040;-51
2023/02/11 08:08:03;;;;;;;6.90;5.50;;;26.10;83.40;;;;;;5069788;28;20041;-50
2023/02/11 08:10:29;;;;;;;8.98;5.90;;;26.10;83.30;;;;;;5079160;28;20024;-51
2023/02/11 08:12:56;;;;;;;9.45;5.60;;;26.10;83.40;;;;;;5063728;28;20206;-48
2023/02/11 08:15:22;;;;;;;9.73;5.20;;;26.10;83.30;;;;;;5066695;28;20032;-49
2023/02/11 08:17:49;;;;;;;7.38;5.47;;;26.10;83.40;;;;;;5075396;28;20033;-56
2023/02/11 08:20:16;;;;;;;11.60;5.65;;;26.10;83.40;;;;;;5073960;28;20024;-56
2023/02/11 08:22:42;;;;;;;6.40;5.32;;;26.10;83.40;;;;;;5065773;28;20059;-50
2023/02/11 08:25:09;;;;;;;8.43;5.10;;;26.10;83.50;;;;;;5071707;28;20052;-50
2023/02/11 08:27:35;;;;;;;9.32;5.30;;;26.10;83.40;;;;;;5078439;28;20032;-53
2023/02/11 08:30:03;;;;;;;7.35;5.30;;;26.10;83.40;;;;;;5063718;28;20355;-50
2023/02/11 08:32:29;;;;;;;9.50;5.80;;;26.10;83.30;;;;;;5063496;28;20040;-55
2023/02/11 08:34:56;;;;;;;8.27;5.60;;;26.10;83.40;;;;;;5071209;28;20025;-50
2023/02/11 08:37:23;;;;;;;7.68;5.43;;;26.10;83.30;;;;;;5067762;28;20037;-52
2023/02/11 08:39:49;;;;;;;7.72;5.75;;;26.10;83.30;;;;;;5072469;28;20283;-50
2023/02/11 08:42:16;;;;;;;5.78;5.18;;;26.10;83.40;;;;;;5072438;28;20033;-51
2023/02/11 08:44:43;;;;;;;6.80;5.57;;;26.10;83.50;;;;;;5073662;28;20047;-47
2023/02/11 08:47:10;;;;;;;5.85;5.25;;;26.00;83.60;;;;;;5072312;28;20029;-47
2023/02/11 08:49:36;;;;;;;6.80;5.47;;;26.00;83.60;;;;;;5071418;28;20052;-47
2023/02/11 08:52:03;;;;;;;6.45;5.72;;;26.00;83.50;;;;;;5063083;28;20041;-55
2023/02/11 08:54:31;;;;;;;9.98;5.85;;;26.00;83.60;;;;;;5074255;28;20021;-50
2023/02/11 08:56:58;;;;;;;6.50;5.80;;;26.00;83.80;;;;;;5074742;28;20033;-47
2023/02/11 08:59:24;;;;;;;11.35;5.90;;;26.00;84.00;;;;;;5066475;28;20020;-50
2023/02/11 09:01:51;;;;;;;7.25;6.10;;;26.00;83.90;;;;;;5070490;28;20083;-52
2023/02/11 09:04:18;;;;;;;7.55;5.90;;;26.00;83.90;;;;;;5070675;28;20360;-51
2023/02/11 09:06:45;;;;;;;8.23;6.03;;;26.00;84.00;;;;;;5073885;28;20271;-47
2023/02/11 09:09:13;;;;;;;8.93;6.03;;;26.00;83.90;;;;;;5076709;28;20040;-50
2023/02/11 09:11:42;;;;;;;6.13;5.50;;;26.00;84.10;;;;;;5065239;28;20024;-48
2023/02/11 09:14:19;;;;;;;9.20;6.07;;;26.00;84.20;;;;;;5065093;28;20033;-51
2023/02/11 09:16:46;;;;;;;8.40;6.30;;;26.00;84.40;;;;;;5075948;28;20021;-50
2023/02/11 09:19:12;;;;;;;8.02;6.22;;;26.00;84.50;;;;;;5070958;28;20043;-55
2023/02/11 09:21:39;;;;;;;8.63;6.32;;;26.00;84.60;;;;;;5078750;28;20028;-50
2023/02/11 09:24:06;;;;;;;9.90;6.20;;;25.90;84.70;;;;;;5067341;28;20025;-51
2023/02/11 09:26:34;;;;;;;9.20;6.32;;;25.90;84.70;;;;;;5076149;28;20040;-55
2023/02/11 09:29:01;;;;;;;7.70;6.47;;;25.90;84.80;;;;;;5073672;28;20025;-49
2023/02/11 09:31:30;;;;;;;11.38;6.53;;;25.90;84.80;;;;;;5083096;28;20032;-51
2023/02/11 09:33:59;;;;;;;8.95;6.20;;;25.90;85.50;;;;;;5066535;28;20025;-50
2023/02/11 09:36:30;;;;;;;9.07;6.00;;;25.90;85.00;;;;;;5066365;28;20071;-51
2023/02/11 09:38:59;;;;;;;10.20;5.90;;;25.90;85.00;;;;;;5066746;28;20095;-48
2023/02/11 09:41:25;;;;;;;11.52;6.22;;;25.90;85.10;;;;;;5066397;28;20096;-50
2023/02/11 09:43:56;;;;;;;8.38;6.40;;;25.90;85.10;;;;;;5066499;28;20029;-50
2023/02/11 09:46:24;;;;;;;7.30;6.30;;;25.90;85.10;;;;;;5066266;28;20040;-46
2023/02/11 09:48:53;;;;;;;7.05;5.65;;;25.90;85.10;;;;;;5066361;28;20067;-51
2023/02/11 09:51:49;;;;;;;8.07;5.90;;;25.90;85.00;;;;;;5066240;28;20217;-48
2023/02/11 09:54:36;;;;;;;6.97;6.25;;;25.90;85.00;;;;;;5059915;28;20033;-54
2023/02/11 09:57:04;;;;;;;7.57;6.40;;;25.90;84.80;;;;;;5066096;28;20078;-54
2023/02/11 09:59:31;;;;;;;8.75;6.60;;;25.90;84.70;;;;;;5066214;28;20059;-47
2023/02/11 10:02:08;;;;;;;9.45;5.90;;;25.90;84.60;;;;;;5065963;28;20222;-54
2023/02/11 10:05:11;;;;;;;7.05;5.82;;;25.90;84.60;;;;;;5065954;28;20016;-46
2023/02/11 10:08:02;;;;;;;10.02;6.25;;;25.90;84.40;;;;;;5065882;28;20082;-47
2023/02/11 10:10:43;;;;;;;10.50;5.60;;;25.90;84.40;;;;;;5065919;28;20095;-47
2023/02/11 10:13:22;;;;;;;13.13;6.07;;;25.90;84.40;;;;;;5065798;28;20033;-50
2023/02/11 10:16:14;;;;;;;11.18;6.50;;;25.90;84.40;;;;;;5064877;28;20021;-54
2023/02/11 10:18:59;;;;;;;9.57;5.83;;;25.90;84.40;;;;;;5065981;28;20025;-51
2023/02/11 10:21:45;;;;;;;7.80;6.25;;;25.90;84.30;;;;;;5065643;28;20259;-54
2023/02/11 10:24:15;;;;;;;6.63;5.80;;;25.90;84.30;;;;;;5065659;28;20083;-55
2023/02/11 10:26:44;;;;;;;7.63;5.70;;;25.90;84.30;;;;;;5081606;28;20028;-60
2023/02/11 10:29:38;;;;;;;7.68;5.90;;;25.90;84.30;;;;;;5085529;28;20056;-60
2023/02/11 10:32:35;;;;;;;11.73;6.55;;;25.90;84.30;;;;;;5083323;28;20091;-60
2023/02/11 10:35:14;;;;;;;13.43;6.40;;;25.90;84.30;;;;;;5078561;28;20037;-55
2023/02/11 10:37:40;;;;;;;7.45;6.05;;;25.90;84.30;;;;;;5080753;28;20016;-50
2023/02/11 10:40:14;;;;;;;12.18;6.43;;;25.90;84.40;;;;;;5083522;28;20021;-50
2023/02/11 10:42:47;;;;;;;9.63;6.10;;;25.90;84.50;;;;;;5077768;28;20046;-48
2023/02/11 10:45:39;;;;;;;7.97;5.90;;;25.90;84.50;;;;;;5084705;28;20232;-48
2023/02/11 10:48:40;;;;;;;7.22;6.15;;;25.90;84.60;;;;;;5083468;28;20359;-60
2023/02/11 10:51:34;;;;;;;9.00;6.05;;;25.90;84.80;;;;;;5084426;28;20037;-52
2023/02/11 10:54:03;;;;;;;8.52;6.10;;;25.90;84.90;;;;;;5085009;28;20028;-55
2023/02/11 10:56:33;;;;;;;8.05;6.10;;;25.90;84.90;;;;;;5083565;28;20043;-48
2023/02/11 10:59:04;;;;;;;8.30;6.43;;;25.90;85.10;;;;;;5084975;28;20020;-60
2023/02/11 11:01:47;;;;;;;6.55;5.85;;;25.90;85.10;;;;;;5064759;28;20028;-57
2023/02/11 11:04:30;;;;;;;11.93;6.25;;;25.90;85.10;;;;;;5064929;28;20258;-47
2023/02/11 11:07:12;;;;;;;9.18;6.50;;;25.90;85.20;;;;;;5064926;28;20221;-54
2023/02/11 11:09:55;;;;;;;10.40;5.93;;;25.90;85.30;;;;;;5064944;28;20025;-58
2023/02/11 11:12:36;;;;;;;8.07;6.20;;;25.90;85.30;;;;;;5075375;28;20040;-49
2023/02/11 11:15:28;;;;;;;9.40;6.07;;;25.90;85.40;;;;;;5081328;28;20067;-50
2023/02/11 11:18:20;;;;;;;11.63;6.78;;;25.90;85.40;;;;;;5076224;28;20329;-48
2023/02/11 11:21:00;;;;;;;;;;;25.90;85.50;;;;;;5081017;28;20036;-49
2023/02/11 11:23:28;;;;;;;17.77;7.57;;;25.90;85.50;;;;;;5084429;28;20180;-50
2023/02/11 11:26:14;;;;;;;17.83;7.70;;;25.80;86.10;;;;;;5084225;28;20074;-50
2023/02/11 11:28:55;;;;;;;16.15;8.88;;;25.80;86.00;;;;;;5084599;28;20036;-48
2023/02/11 11:31:34;;;;;;;11.93;8.07;;;25.60;86.90;;;;;;5084332;28;20190;-48
2023/02/11 11:34:23;;;;;;;15.10;7.63;;;25.50;87.70;;;;;;5084381;28;20032;-47
2023/02/11 11:36:51;;;;;;;21.20;9.23;;;25.40;88.30;;;;;;5084164;28;20021;-48
2023/02/11 11:39:31;;;;;;;16.90;7.70;;;25.40;87.90;;;;;;5084380;28;20071;-43
2023/02/11 11:42:00;;;;;;;16.45;8.15;;;25.40;87.50;;;;;;5084568;28;20016;-49
2023/02/11 11:44:38;;;;;;;11.95;7.18;;;25.50;87.70;;;;;;5084354;28;20028;-45
2023/02/11 11:47:16;;;;;;;13.98;7.43;;;25.50;87.80;;;;;;5082749;28;20036;-46
2023/02/11 11:50:10;;;;;;;10.77;7.18;;;25.50;87.80;;;;;;5081833;28;20032;-48
2023/02/11 11:52:45;;;;;;;8.60;6.90;;;25.50;88.20;;;;;;5082338;28;20024;-51
2023/02/11 11:55:12;;;;;;;9.25;7.32;;;25.50;87.90;;;;;;5081587;28;20037;-47
2023/02/11 11:57:39;;;;;;;9.65;7.45;;;25.50;88.00;;;;;;5080929;28;20016;-45
2023/02/11 12:00:20;;;;;;;9.48;6.78;;;25.50;88.10;;;;;;5081506;28;20080;-42
2023/02/11 12:03:29;;;;;;;13.55;7.05;;;25.50;87.90;;;;;;5082258;28;20048;-47
2023/02/11 12:06:11;;;;;;;12.10;7.43;;;25.50;87.80;;;;;;5045771;28;20040;-48
2023/02/11 12:09:08;;;;;;;12.88;7.32;;;25.60;88.00;;;;;;5083312;28;20047;-45
2023/02/11 12:12:02;;;;;;;11.55;6.60;;;25.50;87.90;;;;;;5084062;28;20060;-47
2023/02/11 12:14:49;;;;;;;10.77;6.68;;;25.50;87.90;;;;;;5084175;28;20024;-45
2023/02/11 12:17:51;;;;;;;8.80;7.20;;;25.50;88.00;;;;;;5083786;28;20032;-49
2023/02/11 12:20:59;;;;;;;11.30;7.15;;;25.60;88.20;;;;;;5084626;28;20012;-50
2023/02/11 12:23:59;;;;;;;10.35;7.35;;;25.50;88.00;;;;;;5040043;28;20172;-51
2023/02/11 12:26:44;;;;;;;12.10;7.18;;;25.50;88.30;;;;;;5084390;28;20035;-47
2023/02/11 12:29:39;;;;;;;14.48;7.65;;;25.50;88.20;;;;;;5084275;28;20032;-48
2023/02/11 12:32:40;;;;;;;20.23;8.30;;;25.50;88.30;;;;;;5084251;28;20094;-47
2023/02/11 12:35:21;;;;;;;20.67;8.43;;;25.60;88.70;;;;;;5083799;28;20027;-46
2023/02/11 12:38:07;;;;;;;22.83;8.73;;;25.60;88.90;;;;;;5084516;28;20033;-54
2023/02/11 12:40:43;;;;;;;23.25;8.40;;;25.60;88.70;;;;;;5088055;28;20035;-48
2023/02/11 12:43:36;;;;;;;14.85;7.85;;;25.60;88.70;;;;;;5087807;28;20313;-53
2023/02/11 12:46:15;;;;;;;15.20;8.15;;;25.60;88.70;;;;;;5087806;28;20051;-52
2023/02/11 12:48:48;;;;;;;14.82;7.53;;;25.70;88.70;;;;;;5087187;28;20040;-46
2023/02/11 12:51:21;;;;;;;13.13;7.57;;;25.70;88.70;;;;;;5086373;28;20046;-45
2023/02/11 12:54:13;;;;;;;13.63;8.23;;;25.70;88.80;;;;;;5087713;28;20032;-44
2023/02/11 12:57:05;;;;;;;14.77;8.38;;;25.80;88.50;;;;;;5088118;28;20039;-45
2023/02/11 12:59:57;;;;;;;11.75;7.40;;;25.80;88.60;;;;;;5086990;28;20033;-49
2023/02/11 13:02:27;;;;;;;16.40;8.88;;;25.80;88.20;;;;;;5085699;28;20097;-47
2023/02/11 13:04:59;;;;;;;11.43;7.05;;;25.90;88.20;;;;;;5086141;28;20048;-43
2023/02/11 13:07:35;;;;;;;29.15;9.25;;;25.90;88.30;;;;;;5087553;28;20028;-46
2023/02/11 13:10:14;;;;;;;26.80;8.80;;;25.90;87.80;;;;;;5087903;28;20037;-50
2023/02/11 13:15:31;;;;;;;21.60;7.85;;;26.00;87.30;;;;;;5087681;28;20036;-48